Time;durP1;ratioP1;P1;durP2;ratioP2;P2;SDS_P1;SDS_P2;PMS_P1;PMS_P2;Temp;Humidity;BMP_temperature;BMP_pressure;BME280_temperature;BME280_humidity;BME280_pressure;Samples;Min_cycle;Max_cycle;Signal;HPM_P1;HPM_P2
2023/05/04 00:01:17;;;;;;;0.70;0.70;;;;;;;;;;5037059;28;20179;-79
2023/05/04 00:03:43;;;;;;;0.60;0.60;;;;;;;;;;5037075;28;20200;-78
2023/05/04 00:06:09;;;;;;;0.60;0.60;;;;;;;;;;5037588;28;20176;-79
2023/05/04 00:08:35;;;;;;;0.53;0.53;;;;;;;;;;5037995;28;20179;-79
2023/05/04 00:11:01;;;;;;;0.60;0.60;;;;;;;;;;5037838;28;20191;-79
2023/05/04 00:13:27;;;;;;;0.60;0.60;;;;;;;;;;5036710;28;20215;-79
2023/05/04 00:15:53;;;;;;;0.63;0.63;;;;;;;;;;5037586;28;20175;-77
2023/05/04 00:18:19;;;;;;;0.63;0.63;;;;;;;;;;5037739;28;20211;-79
2023/05/04 00:20:45;;;;;;;0.60;0.60;;;;;;;;;;5037581;28;20192;-78
2023/05/04 00:23:11;;;;;;;0.50;0.50;;;;;;;;;;5036870;28;20172;-78
2023/05/04 00:25:37;;;;;;;0.60;0.60;;;;;;;;;;5036868;28;20176;-77
2023/05/04 00:28:03;;;;;;;0.50;0.50;;;;;;;;;;5036964;28;20179;-79
2023/05/04 00:30:29;;;;;;;0.60;0.60;;;;;;;;;;5036361;28;20719;-78
2023/05/04 00:32:55;;;;;;;0.50;0.50;;;;;;;;;;5036621;28;20204;-78
2023/05/04 00:35:21;;;;;;;0.60;0.60;;;;;;;;;;5037108;28;20223;-78
2023/05/04 00:37:47;;;;;;;0.50;0.50;;;;;;;;;;5036828;28;20290;-78
2023/05/04 00:40:13;;;;;;;0.60;0.60;;;;;;;;;;5036595;28;20170;-78
2023/05/04 00:42:39;;;;;;;0.70;0.70;;;;;;;;;;5036255;28;20727;-78
2023/05/04 00:45:05;;;;;;;0.70;0.70;;;;;;;;;;5036913;28;20196;-78
2023/05/04 00:47:31;;;;;;;0.67;0.67;;;;;;;;;;5036187;28;20179;-78
2023/05/04 00:49:57;;;;;;;0.70;0.70;;;;;;;;;;5036483;28;20179;-78
2023/05/04 00:52:23;;;;;;;0.60;0.60;;;;;;;;;;5035703;28;20558;-79
2023/05/04 00:54:49;;;;;;;0.53;0.53;;;;;;;;;;5036937;28;20212;-78
2023/05/04 00:57:16;;;;;;;0.77;0.77;;;;;;;;;;5036270;28;20639;-77
2023/05/04 00:59:42;;;;;;;0.60;0.60;;;;;;;;;;5040551;28;20195;-76
2023/05/04 01:02:08;;;;;;;0.70;0.70;;;;;;;;;;5058616;28;20244;-76
2023/05/04 01:04:34;;;;;;;0.70;0.70;;;;;;;;;;5058147;28;20180;-76
2023/05/04 01:07:06;;;;;;;0.67;0.67;;;;;;;;;;5058793;28;20179;-77
2023/05/04 01:09:46;;;;;;;0.60;0.60;;;;;;;;;;5058500;28;20198;-76
2023/05/04 01:12:41;;;;;;;0.70;0.70;;;;;;;;;;5057267;28;20755;-77
2023/05/04 01:15:12;;;;;;;0.60;0.60;;;;;;;;;;5050174;28;20216;-79
2023/05/04 01:17:38;;;;;;;0.60;0.60;;;;;;;;;;5038138;28;20190;-78
2023/05/04 01:20:04;;;;;;;0.70;0.70;;;;;;;;;;5039826;28;20266;-79
2023/05/04 01:22:30;;;;;;;0.60;0.60;;;;;;;;;;5038082;28;20258;-79
2023/05/04 01:24:56;;;;;;;0.60;0.60;;;;;;;;;;5039219;28;20206;-78
2023/05/04 01:27:23;;;;;;;0.70;0.70;;;;;;;;;;5038884;28;20600;-79
2023/05/04 01:30:04;;;;;;;0.60;0.60;;;;;;;;;;5038682;28;20484;-79
2023/05/04 01:32:31;;;;;;;0.70;0.70;;;;;;;;;;5037538;28;20187;-79
2023/05/04 01:34:58;;;;;;;0.60;0.60;;;;;;;;;;5038114;28;20314;-78
2023/05/04 01:37:24;;;;;;;0.60;0.60;;;;;;;;;;5037698;28;20207;-78
2023/05/04 01:39:50;;;;;;;0.70;0.70;;;;;;;;;;5037532;28;20330;-78
2023/05/04 01:42:16;;;;;;;0.60;0.60;;;;;;;;;;5037192;28;20207;-79
2023/05/04 01:44:42;;;;;;;0.70;0.70;;;;;;;;;;5037091;28;20207;-78
2023/05/04 01:47:08;;;;;;;0.70;0.70;;;;;;;;;;5037334;28;20279;-79
2023/05/04 01:49:34;;;;;;;0.60;0.60;;;;;;;;;;5037020;28;20270;-79
2023/05/04 01:52:00;;;;;;;0.67;0.67;;;;;;;;;;5036682;28;20207;-80
2023/05/04 01:54:26;;;;;;;0.70;0.70;;;;;;;;;;5035690;28;20226;-79
2023/05/04 01:56:52;;;;;;;0.60;0.60;;;;;;;;;;5036282;28;20176;-79
2023/05/04 01:59:18;;;;;;;0.70;0.70;;;;;;;;;;5036463;28;20183;-78
2023/05/04 02:01:44;;;;;;;0.63;0.63;;;;;;;;;;5036697;28;20630;-79
2023/05/04 02:04:10;;;;;;;0.67;0.67;;;;;;;;;;5034977;28;20202;-79
2023/05/04 02:06:36;;;;;;;0.60;0.60;;;;;;;;;;5035849;28;20180;-79
2023/05/04 02:09:02;;;;;;;0.70;0.70;;;;;;;;;;5035598;28;20265;-78
2023/05/04 02:11:28;;;;;;;0.60;0.60;;;;;;;;;;5035950;28;20176;-79
2023/05/04 02:13:54;;;;;;;0.60;0.60;;;;;;;;;;5034796;28;20232;-78
2023/05/04 02:16:20;;;;;;;0.60;0.60;;;;;;;;;;5035879;28;20175;-79
2023/05/04 02:18:46;;;;;;;0.70;0.70;;;;;;;;;;5035680;28;20192;-78
2023/05/04 02:21:12;;;;;;;0.60;0.60;;;;;;;;;;5035195;28;20296;-78
2023/05/04 02:23:38;;;;;;;0.60;0.60;;;;;;;;;;5034674;28;20306;-78
2023/05/04 02:26:05;;;;;;;0.57;0.57;;;;;;;;;;5035396;28;20187;-78
2023/05/04 02:28:31;;;;;;;0.53;0.53;;;;;;;;;;5034573;28;20290;-79
2023/05/04 02:30:57;;;;;;;0.50;0.50;;;;;;;;;;5035351;28;20171;-79
2023/05/04 02:33:23;;;;;;;0.70;0.70;;;;;;;;;;5034513;28;20222;-79
2023/05/04 02:35:49;;;;;;;0.70;0.70;;;;;;;;;;5034984;28;20183;-78
2023/05/04 02:38:15;;;;;;;0.70;0.70;;;;;;;;;;5034206;28;20215;-79
2023/05/04 02:40:41;;;;;;;0.70;0.70;;;;;;;;;;5034919;28;20183;-79
2023/05/04 02:43:06;;;;;;;0.70;0.70;;;;;;;;;;5033760;28;20182;-78
2023/05/04 02:45:32;;;;;;;0.70;0.70;;;;;;;;;;5034485;28;20207;-78
2023/05/04 02:47:58;;;;;;;0.50;0.50;;;;;;;;;;5034576;28;20254;-78
2023/05/04 02:50:24;;;;;;;0.60;0.60;;;;;;;;;;5035107;28;20184;-78
2023/05/04 02:52:50;;;;;;;0.70;0.70;;;;;;;;;;5033668;28;20615;-78
2023/05/04 02:55:16;;;;;;;0.60;0.60;;;;;;;;;;5034463;28;20214;-78
2023/05/04 02:57:42;;;;;;;0.60;0.60;;;;;;;;;;5034403;28;20293;-80
2023/05/04 03:00:08;;;;;;;0.60;0.60;;;;;;;;;;5034493;28;20175;-78
2023/05/04 03:02:34;;;;;;;0.60;0.60;;;;;;;;;;5033798;28;20183;-77
2023/05/04 03:05:00;;;;;;;0.60;0.60;;;;;;;;;;5034180;28;20805;-78
2023/05/04 03:07:27;;;;;;;0.63;0.63;;;;;;;;;;5033537;28;20199;-77
2023/05/04 03:09:53;;;;;;;0.60;0.60;;;;;;;;;;5034013;28;20545;-79
2023/05/04 03:12:19;;;;;;;0.60;0.60;;;;;;;;;;5035263;28;20211;-79
2023/05/04 03:14:45;;;;;;;0.60;0.60;;;;;;;;;;5035614;28;20206;-79
2023/05/04 03:17:11;;;;;;;0.60;0.60;;;;;;;;;;5035975;28;20179;-78
2023/05/04 03:19:37;;;;;;;0.80;0.80;;;;;;;;;;5035335;28;20179;-78
2023/05/04 03:22:03;;;;;;;0.60;0.60;;;;;;;;;;5035826;28;20175;-78
2023/05/04 03:24:29;;;;;;;0.60;0.60;;;;;;;;;;5034906;28;20196;-78
2023/05/04 03:26:56;;;;;;;0.80;0.80;;;;;;;;;;5035215;28;20627;-78
2023/05/04 03:29:22;;;;;;;0.60;0.60;;;;;;;;;;5035404;28;20261;-78
2023/05/04 03:31:48;;;;;;;0.60;0.60;;;;;;;;;;5035229;28;20180;-78
2023/05/04 03:34:14;;;;;;;0.60;0.60;;;;;;;;;;5034606;28;20559;-78
2023/05/04 03:36:40;;;;;;;0.60;0.60;;;;;;;;;;5034102;28;20278;-78
2023/05/04 03:39:06;;;;;;;0.60;0.60;;;;;;;;;;5034288;28;20180;-79
2023/05/04 03:41:32;;;;;;;0.60;0.60;;;;;;;;;;5034133;28;20258;-79
2023/05/04 03:43:58;;;;;;;0.60;0.60;;;;;;;;;;5039347;28;20199;-79
2023/05/04 03:46:24;;;;;;;0.70;0.70;;;;;;;;;;5040292;28;20179;-80
2023/05/04 03:48:50;;;;;;;0.70;0.70;;;;;;;;;;5034596;28;20186;-79
2023/05/04 03:51:16;;;;;;;0.60;0.60;;;;;;;;;;5034979;28;20254;-79
2023/05/04 03:53:42;;;;;;;0.70;0.70;;;;;;;;;;5033258;28;20250;-78
2023/05/04 03:56:08;;;;;;;0.70;0.70;;;;;;;;;;5033700;28;20192;-78
2023/05/04 03:58:35;;;;;;;0.67;0.67;;;;;;;;;;5033998;28;20176;-79
2023/05/04 04:01:02;;;;;;;0.70;0.70;;;;;;;;;;5034201;28;20180;-79
2023/05/04 04:03:28;;;;;;;0.70;0.70;;;;;;;;;;5034413;28;20207;-79
2023/05/04 04:05:54;;;;;;;0.70;0.70;;;;;;;;;;5037751;28;20261;-79
2023/05/04 04:08:20;;;;;;;0.60;0.60;;;;;;;;;;5037693;28;20598;-79
2023/05/04 04:10:46;;;;;;;0.70;0.70;;;;;;;;;;5038025;28;20179;-79
2023/05/04 04:13:12;;;;;;;0.60;0.60;;;;;;;;;;5058371;28;20216;-78
2023/05/04 04:15:38;;;;;;;0.73;0.73;;;;;;;;;;5077570;28;20179;-79
2023/05/04 04:18:04;;;;;;;0.60;0.60;;;;;;;;;;5061974;28;20205;-79
2023/05/04 04:20:31;;;;;;;0.70;0.70;;;;;;;;;;5048393;28;20586;-80
2023/05/04 04:22:57;;;;;;;0.70;0.70;;;;;;;;;;5047254;28;20215;-79
2023/05/04 04:25:23;;;;;;;0.70;0.70;;;;;;;;;;5036817;28;20187;-79
2023/05/04 04:27:50;;;;;;;0.60;0.60;;;;;;;;;;5037852;28;20176;-79
2023/05/04 04:30:16;;;;;;;0.70;0.70;;;;;;;;;;5045232;28;20183;-79
2023/05/04 04:32:42;;;;;;;0.60;0.60;;;;;;;;;;5046562;28;20199;-78
2023/05/04 04:35:08;;;;;;;0.60;0.60;;;;;;;;;;5045744;28;20191;-79
2023/05/04 04:37:34;;;;;;;0.60;0.60;;;;;;;;;;5044918;28;20250;-79
2023/05/04 04:40:00;;;;;;;0.70;0.70;;;;;;;;;;5037545;28;20636;-79
2023/05/04 04:42:26;;;;;;;0.70;0.70;;;;;;;;;;5038390;28;20552;-78
2023/05/04 04:44:52;;;;;;;0.70;0.70;;;;;;;;;;5038033;28;20210;-79
2023/05/04 04:47:18;;;;;;;0.70;0.70;;;;;;;;;;5055014;28;20551;-77
2023/05/04 04:49:44;;;;;;;0.60;0.60;;;;;;;;;;5078711;28;20198;-77
2023/05/04 04:52:10;;;;;;;0.67;0.67;;;;;;;;;;5077662;28;20256;-80
2023/05/04 04:54:36;;;;;;;0.60;0.60;;;;;;;;;;5077467;28;20233;-79
2023/05/04 04:57:02;;;;;;;0.70;0.70;;;;;;;;;;5078945;28;20182;-80
2023/05/04 04:59:28;;;;;;;0.70;0.70;;;;;;;;;;5077769;28;20269;-80
2023/05/04 05:01:56;;;;;;;0.70;0.70;;;;;;;;;;5062795;28;20206;-82
2023/05/04 05:04:24;;;;;;;0.70;0.70;;;;;;;;;;5058721;28;20229;-80
2023/05/04 05:06:50;;;;;;;0.70;0.70;;;;;;;;;;5057772;28;20175;-79
2023/05/04 05:09:16;;;;;;;0.60;0.60;;;;;;;;;;5057547;28;20258;-81
2023/05/04 05:11:42;;;;;;;0.60;0.60;;;;;;;;;;5057895;28;20181;-82
2023/05/04 05:14:09;;;;;;;0.70;0.70;;;;;;;;;;5057374;28;20286;-80
2023/05/04 05:16:35;;;;;;;0.60;0.60;;;;;;;;;;5057402;28;20193;-80
2023/05/04 05:19:01;;;;;;;0.60;0.60;;;;;;;;;;5057736;28;20189;-80
2023/05/04 05:21:27;;;;;;;0.70;0.70;;;;;;;;;;5056641;28;20221;-79
2023/05/04 05:23:53;;;;;;;0.60;0.60;;;;;;;;;;5056392;28;20218;-81
2023/05/04 05:26:19;;;;;;;0.70;0.70;;;;;;;;;;5057053;28;20171;-81
2023/05/04 05:28:45;;;;;;;0.60;0.60;;;;;;;;;;5056416;28;20205;-80
2023/05/04 05:31:11;;;;;;;0.60;0.60;;;;;;;;;;5057407;28;20686;-81
2023/05/04 05:33:38;;;;;;;0.60;0.60;;;;;;;;;;5056827;28;20210;-82
2023/05/04 05:36:04;;;;;;;0.60;0.60;;;;;;;;;;5056994;28;20172;-81
2023/05/04 05:38:30;;;;;;;0.60;0.60;;;;;;;;;;5058125;28;20187;-81
2023/05/04 05:40:56;;;;;;;0.57;0.57;;;;;;;;;;5074379;28;20181;-79
2023/05/04 05:43:22;;;;;;;0.60;0.60;;;;;;;;;;5076495;28;20191;-78
2023/05/04 05:45:48;;;;;;;0.70;0.70;;;;;;;;;;5092291;28;20159;-76
2023/05/04 05:48:14;;;;;;;0.63;0.63;;;;;;;;;;5091023;28;20205;-77
2023/05/04 05:50:40;;;;;;;0.60;0.60;;;;;;;;;;5093598;28;20159;-79
2023/05/04 05:53:06;;;;;;;0.60;0.60;;;;;;;;;;5077278;28;20219;-78
2023/05/04 05:55:32;;;;;;;0.70;0.70;;;;;;;;;;5057453;28;20210;-79
2023/05/04 05:57:58;;;;;;;0.70;0.70;;;;;;;;;;5062004;28;20167;-84
2023/05/04 06:00:24;;;;;;;0.60;0.60;;;;;;;;;;5085001;28;20183;-78
2023/05/04 06:02:51;;;;;;;0.73;0.73;;;;;;;;;;5093279;28;20174;-81
2023/05/04 06:05:17;;;;;;;0.60;0.60;;;;;;;;;;5094364;28;20187;-81
2023/05/04 06:07:46;;;;;;;0.70;0.70;;;;;;;;;;5094134;28;20231;-85
2023/05/04 06:10:12;;;;;;;0.60;0.60;;;;;;;;;;5095774;28;20166;-80
2023/05/04 06:12:38;;;;;;;0.60;0.60;;;;;;;;;;5084859;28;20194;-80
2023/05/04 06:15:04;;;;;;;0.50;0.50;;;;;;;;;;5045751;28;20295;-81
2023/05/04 06:17:31;;;;;;;0.60;0.60;;;;;;;;;;5056374;28;20362;-81
2023/05/04 06:19:56;;;;;;;0.60;0.60;;;;;;;;;;5056981;28;20180;-80
2023/05/04 06:22:22;;;;;;;0.60;0.60;;;;;;;;;;5056349;28;20603;-81
2023/05/04 06:24:49;;;;;;;0.57;0.57;;;;;;;;;;5055053;28;20591;-81
2023/05/04 06:27:15;;;;;;;0.60;0.60;;;;;;;;;;5063774;28;20182;-81
2023/05/04 06:29:41;;;;;;;0.60;0.60;;;;;;;;;;5069140;28;20665;-80
2023/05/04 06:32:10;;;;;;;0.50;0.50;;;;;;;;;;5055959;28;20175;-82
2023/05/04 06:34:36;;;;;;;0.60;0.60;;;;;;;;;;5056167;28;20229;-84
2023/05/04 06:37:02;;;;;;;0.50;0.50;;;;;;;;;;5055721;28;20194;-81
2023/05/04 06:39:28;;;;;;;0.40;0.40;;;;;;;;;;5054813;28;20420;-81
2023/05/04 06:41:54;;;;;;;0.50;0.50;;;;;;;;;;5055688;28;20183;-82
2023/05/04 06:44:21;;;;;;;0.50;0.50;;;;;;;;;;5054262;28;20202;-81
2023/05/04 06:46:47;;;;;;;0.43;0.43;;;;;;;;;;5045772;28;20182;-79
2023/05/04 06:49:13;;;;;;;0.50;0.50;;;;;;;;;;5037839;28;20275;-82
2023/05/04 06:51:39;;;;;;;0.50;0.50;;;;;;;;;;5036333;28;20299;-80
2023/05/04 06:54:06;;;;;;;0.40;0.40;;;;;;;;;;5037795;28;20646;-80
2023/05/04 06:56:32;;;;;;;0.43;0.43;;;;;;;;;;5035043;28;20680;-81
2023/05/04 06:58:57;;;;;;;0.50;0.50;;;;;;;;;;5035297;28;20274;-79
2023/05/04 07:01:23;;;;;;;0.50;0.50;;;;;;;;;;5034113;28;20237;-79
2023/05/04 07:03:49;;;;;;;0.40;0.40;;;;;;;;;;5033879;28;20203;-79
2023/05/04 07:06:15;;;;;;;0.40;0.40;;;;;;;;;;5033493;28;20179;-80
2023/05/04 07:08:41;;;;;;;0.40;0.40;;;;;;;;;;5033427;28;20179;-80
2023/05/04 07:11:09;;;;;;;0.30;0.30;;;;;;;;;;5033662;28;20180;-80
2023/05/04 07:13:35;;;;;;;0.40;0.40;;;;;;;;;;5033461;28;20369;-79
2023/05/04 07:16:01;;;;;;;0.40;0.40;;;;;;;;;;5033823;28;20274;-80
2023/05/04 07:18:26;;;;;;;0.40;0.40;;;;;;;;;;5034508;28;20187;-80
2023/05/04 07:20:52;;;;;;;0.50;0.50;;;;;;;;;;5035292;28;20183;-82
2023/05/04 07:23:18;;;;;;;0.50;0.50;;;;;;;;;;5038222;28;20175;-79
2023/05/04 07:25:45;;;;;;;0.50;0.50;;;;;;;;;;5034016;28;20176;-81
2023/05/04 07:28:11;;;;;;;0.43;0.43;;;;;;;;;;5034018;28;20180;-81
2023/05/04 07:30:37;;;;;;;0.50;0.50;;;;;;;;;;5068550;28;20189;-82
2023/05/04 07:33:03;;;;;;;0.40;0.40;;;;;;;;;;5073662;28;20217;-80
2023/05/04 07:35:29;;;;;;;0.40;0.40;;;;;;;;;;5073695;28;20191;-82
2023/05/04 07:37:55;;;;;;;0.50;0.50;;;;;;;;;;5073644;28;20199;-79
2023/05/04 07:40:21;;;;;;;0.40;0.40;;;;;;;;;;5077802;28;20305;-79
2023/05/04 07:42:46;;;;;;;0.40;0.40;;;;;;;;;;5078082;28;20258;-80
2023/05/04 07:45:15;;;;;;;0.40;0.40;;;;;;;;;;5078209;28;20202;-80
2023/05/04 07:47:41;;;;;;;0.30;0.30;;;;;;;;;;5078371;28;20212;-83
2023/05/04 07:50:07;;;;;;;0.40;0.40;;;;;;;;;;5078523;28;20186;-81
2023/05/04 07:52:33;;;;;;;0.30;0.30;;;;;;;;;;5077456;28;20193;-81
2023/05/04 07:54:59;;;;;;;0.30;0.30;;;;;;;;;;5077361;28;20206;-81
2023/05/04 07:57:25;;;;;;;0.30;0.30;;;;;;;;;;5077810;28;20231;-84
2023/05/04 07:59:54;;;;;;;0.33;0.33;;;;;;;;;;5077989;28;20178;-81
2023/05/04 08:02:21;;;;;;;0.30;0.30;;;;;;;;;;5079240;28;20178;-80
2023/05/04 08:04:47;;;;;;;0.30;0.30;;;;;;;;;;5076797;28;20195;-82
2023/05/04 08:07:15;;;;;;;0.30;0.30;;;;;;;;;;5078784;28;20178;-81
2023/05/04 08:09:42;;;;;;;0.33;0.33;;;;;;;;;;5078380;28;20591;-80
2023/05/04 08:12:08;;;;;;;0.30;0.30;;;;;;;;;;5049118;28;20579;-80
2023/05/04 08:14:33;;;;;;;0.30;0.30;;;;;;;;;;5037134;28;20245;-84
2023/05/04 08:17:00;;;;;;;0.40;0.40;;;;;;;;;;5037170;28;20643;-81
2023/05/04 08:19:26;;;;;;;0.30;0.30;;;;;;;;;;5042359;28;20179;-82
2023/05/04 08:21:52;;;;;;;0.30;0.30;;;;;;;;;;5048853;28;20554;-81
2023/05/04 08:24:18;;;;;;;0.30;0.30;;;;;;;;;;5057441;28;20218;-83
2023/05/04 08:26:44;;;;;;;0.30;0.30;;;;;;;;;;5053280;28;20180;-81
2023/05/04 08:29:10;;;;;;;0.40;0.40;;;;;;;;;;5048120;28;20186;-81
2023/05/04 08:31:36;;;;;;;0.30;0.30;;;;;;;;;;5057154;28;20179;-83
2023/05/04 08:34:02;;;;;;;0.40;0.40;;;;;;;;;;5056108;28;20222;-80
2023/05/04 08:36:29;;;;;;;0.47;0.47;;;;;;;;;;5044096;28;20169;-82
2023/05/04 08:38:55;;;;;;;0.40;0.40;;;;;;;;;;5037745;28;20172;-81
2023/05/04 08:41:24;;;;;;;0.30;0.30;;;;;;;;;;5040488;28;20172;-82
2023/05/04 08:43:51;;;;;;;0.40;0.40;;;;;;;;;;5037426;28;20200;-81
2023/05/04 08:46:17;;;;;;;0.40;0.40;;;;;;;;;;5045587;28;20179;-82
2023/05/04 08:48:46;;;;;;;0.30;0.30;;;;;;;;;;5043956;28;20176;-82
2023/05/04 08:51:13;;;;;;;0.50;0.50;;;;;;;;;;5046570;28;20175;-81
2023/05/04 08:53:41;;;;;;;0.30;0.30;;;;;;;;;;5050176;28;20225;-82
2023/05/04 08:56:08;;;;;;;0.33;0.33;;;;;;;;;;5047032;28;20234;-81
2023/05/04 08:58:41;;;;;;;0.33;0.33;;;;;;;;;;5063074;28;20251;-81
2023/05/04 09:01:07;;;;;;;0.40;0.40;;;;;;;;;;5058821;28;20271;-81
2023/05/04 09:03:33;;;;;;;0.40;0.40;;;;;;;;;;5064927;28;20188;-80
2023/05/04 09:05:59;;;;;;;0.40;0.40;;;;;;;;;;5078729;28;20163;-81
2023/05/04 09:08:26;;;;;;;0.40;0.40;;;;;;;;;;5068861;28;20207;-84
2023/05/04 09:10:52;;;;;;;0.40;0.40;;;;;;;;;;5060422;28;20183;-84
2023/05/04 09:13:18;;;;;;;0.40;0.40;;;;;;;;;;5059211;28;20242;-82
2023/05/04 09:15:54;;;;;;;0.43;0.43;;;;;;;;;;5059451;28;20179;-83
2023/05/04 09:18:20;;;;;;;0.30;0.30;;;;;;;;;;5055806;28;20183;-83
2023/05/04 09:20:46;;;;;;;0.30;0.30;;;;;;;;;;5056445;28;20264;-82
2023/05/04 09:23:13;;;;;;;0.40;0.40;;;;;;;;;;5060836;28;20186;-82
2023/05/04 09:25:51;;;;;;;0.50;0.50;;;;;;;;;;5039530;28;20180;-81
2023/05/04 09:28:18;;;;;;;0.40;0.40;;;;;;;;;;5046294;28;20209;-83
2023/05/04 09:30:45;;;;;;;0.37;0.37;;;;;;;;;;5038606;28;20596;-82
2023/05/04 09:33:11;;;;;;;0.40;0.40;;;;;;;;;;5045331;28;20210;-83
2023/05/04 09:35:43;;;;;;;0.30;0.30;;;;;;;;;;5045180;28;20179;-83
2023/05/04 09:38:09;;;;;;;0.30;0.30;;;;;;;;;;5037599;28;20216;-84
2023/05/04 09:40:36;;;;;;;0.30;0.30;;;;;;;;;;5050187;28;20696;-88
2023/05/04 09:43:02;;;;;;;0.40;0.40;;;;;;;;;;5041560;28;20199;-82
2023/05/04 09:45:39;;;;;;;0.30;0.30;;;;;;;;;;5037527;28;20209;-82
2023/05/04 09:48:19;;;;;;;0.30;0.30;;;;;;;;;;5037433;28;20231;-83
2023/05/04 09:50:52;;;;;;;0.30;0.30;;;;;;;;;;5035343;28;20180;-83
2023/05/04 09:53:19;;;;;;;0.40;0.40;;;;;;;;;;5047186;28;20203;-86
2023/05/04 09:55:47;;;;;;;0.40;0.40;;;;;;;;;;5056191;28;20538;-84
2023/05/04 09:58:17;;;;;;;0.40;0.40;;;;;;;;;;5038332;28;20191;-87
2023/05/04 10:00:43;;;;;;;0.30;0.30;;;;;;;;;;5051064;28;20605;-84
2023/05/04 10:03:10;;;;;;;0.33;0.33;;;;;;;;;;5046147;28;20167;-83
2023/05/04 10:05:38;;;;;;;0.40;0.40;;;;;;;;;;5046441;28;20195;-81
2023/05/04 10:08:05;;;;;;;0.30;0.30;;;;;;;;;;5047819;28;20199;-83
2023/05/04 10:10:32;;;;;;;0.30;0.30;;;;;;;;;;5049359;28;20175;-81
2023/05/04 10:12:58;;;;;;;0.40;0.40;;;;;;;;;;5043798;28;20203;-84
2023/05/04 10:15:24;;;;;;;0.30;0.30;;;;;;;;;;5046008;28;20208;-83
2023/05/04 10:18:09;;;;;;;0.40;0.40;;;;;;;;;;5043582;28;20250;-85
2023/05/04 10:20:43;;;;;;;0.30;0.30;;;;;;;;;;5046587;28;20243;-84
2023/05/04 10:23:34;;;;;;;0.30;0.30;;;;;;;;;;5043432;28;20199;-83
2023/05/04 10:26:03;;;;;;;0.30;0.30;;;;;;;;;;5051542;28;20556;-84
2023/05/04 10:28:35;;;;;;;0.30;0.30;;;;;;;;;;5039054;28;20167;-84
2023/05/04 10:31:03;;;;;;;0.33;0.33;;;;;;;;;;5048090;28;20234;-84
2023/05/04 10:33:39;;;;;;;0.30;0.30;;;;;;;;;;5046022;28;20219;-83
2023/05/04 10:36:05;;;;;;;0.40;0.40;;;;;;;;;;5045557;28;20186;-84
2023/05/04 10:38:34;;;;;;;0.40;0.40;;;;;;;;;;5050951;28;20226;-82
2023/05/04 10:41:00;;;;;;;0.40;0.40;;;;;;;;;;5057542;28;20214;-84
2023/05/04 10:43:31;;;;;;;0.30;0.30;;;;;;;;;;5054601;28;20533;-83
2023/05/04 10:45:57;;;;;;;0.30;0.30;;;;;;;;;;5060492;28;20255;-83
2023/05/04 10:48:33;;;;;;;0.40;0.40;;;;;;;;;;5056663;28;20654;-83
2023/05/04 10:50:59;;;;;;;0.33;0.33;;;;;;;;;;5056764;28;20231;-83
2023/05/04 10:53:31;;;;;;;0.30;0.30;;;;;;;;;;5056937;28;20215;-82
2023/05/04 10:55:57;;;;;;;0.40;0.40;;;;;;;;;;5059143;28;20175;-82
2023/05/04 10:58:30;;;;;;;0.40;0.40;;;;;;;;;;5057676;28;20263;-84
2023/05/04 11:00:56;;;;;;;0.33;0.33;;;;;;;;;;5061711;28;20170;-83
2023/05/04 11:03:23;;;;;;;0.50;0.50;;;;;;;;;;5077183;28;20577;-83
2023/05/04 11:05:51;;;;;;;0.40;0.40;;;;;;;;;;5077578;28;20197;-81
2023/05/04 11:08:17;;;;;;;0.33;0.33;;;;;;;;;;5074535;28;20188;-85
2023/05/04 11:10:44;;;;;;;0.40;0.40;;;;;;;;;;5067333;28;20239;-85
2023/05/04 11:13:11;;;;;;;0.40;0.40;;;;;;;;;;5062307;28;20674;-81
2023/05/04 11:15:46;;;;;;;0.40;0.40;;;;;;;;;;5045878;28;20647;-81
2023/05/04 11:18:12;;;;;;;0.30;0.30;;;;;;;;;;5054498;28;20643;-80
2023/05/04 11:20:40;;;;;;;0.40;0.40;;;;;;;;;;5060337;28;20179;-82
2023/05/04 11:23:09;;;;;;;0.40;0.40;;;;;;;;;;5058864;28;20190;-84
2023/05/04 11:25:36;;;;;;;0.30;0.30;;;;;;;;;;5059751;28;20194;-84
2023/05/04 11:28:02;;;;;;;0.37;0.37;;;;;;;;;;5059128;28;20171;-83
2023/05/04 11:30:32;;;;;;;0.40;0.40;;;;;;;;;;5059857;28;20262;-82
2023/05/04 11:33:01;;;;;;;0.50;0.50;;;;;;;;;;5057689;28;20215;-82
2023/05/04 11:35:28;;;;;;;0.40;0.40;;;;;;;;;;5060141;28;20191;-82
2023/05/04 11:37:54;;;;;;;0.40;0.40;;;;;;;;;;5058759;28;20199;-83
2023/05/04 11:40:25;;;;;;;0.40;0.40;;;;;;;;;;5058746;28;20182;-85
2023/05/04 11:42:52;;;;;;;0.50;0.50;;;;;;;;;;5045130;28;20701;-86
2023/05/04 11:45:20;;;;;;;0.30;0.30;;;;;;;;;;5038705;28;20195;-84
2023/05/04 11:47:47;;;;;;;0.30;0.30;;;;;;;;;;5039014;28;20258;-85
2023/05/04 11:50:14;;;;;;;0.40;0.40;;;;;;;;;;5038530;28;20230;-84
2023/05/04 11:52:40;;;;;;;0.50;0.50;;;;;;;;;;5037472;28;20714;-86
2023/05/04 11:55:29;;;;;;;0.40;0.40;;;;;;;;;;5037223;28;20204;-85
2023/05/04 11:57:56;;;;;;;0.30;0.30;;;;;;;;;;5041799;28;20203;-85
2023/05/04 12:00:33;;;;;;;0.43;0.43;;;;;;;;;;5038749;28;20562;-86
2023/05/04 12:02:59;;;;;;;0.50;0.50;;;;;;;;;;5040583;28;20700;-84
2023/05/04 12:05:25;;;;;;;0.37;0.37;;;;;;;;;;5036186;28;20278;-86
2023/05/04 12:07:51;;;;;;;0.50;0.50;;;;;;;;;;5036123;28;20559;-87
2023/05/04 12:10:27;;;;;;;0.30;0.30;;;;;;;;;;5036481;28;20180;-85
2023/05/04 12:12:53;;;;;;;0.40;0.40;;;;;;;;;;5041740;28;20214;-85
2023/05/04 12:15:28;;;;;;;0.43;0.43;;;;;;;;;;5049883;28;20286;-86
2023/05/04 12:17:54;;;;;;;0.40;0.40;;;;;;;;;;5059019;28;20255;-84
2023/05/04 12:20:27;;;;;;;0.30;0.30;;;;;;;;;;5042036;28;20209;-84
2023/05/04 12:22:54;;;;;;;0.40;0.40;;;;;;;;;;5036837;28;20179;-85
2023/05/04 12:25:20;;;;;;;0.30;0.30;;;;;;;;;;5043726;28;20191;-85
2023/05/04 12:27:46;;;;;;;0.40;0.40;;;;;;;;;;5056533;28;20172;-83
2023/05/04 12:30:13;;;;;;;0.37;0.37;;;;;;;;;;5042334;28;20176;-84
2023/05/04 12:32:39;;;;;;;0.40;0.40;;;;;;;;;;5052591;28;20179;-86
2023/05/04 12:35:05;;;;;;;0.40;0.40;;;;;;;;;;5041569;28;20202;-85
2023/05/04 12:37:31;;;;;;;0.40;0.40;;;;;;;;;;5045427;28;20192;-84
2023/05/04 12:39:57;;;;;;;0.40;0.40;;;;;;;;;;5040471;28;20227;-83
2023/05/04 12:42:23;;;;;;;0.30;0.30;;;;;;;;;;5036958;28;20271;-84
2023/05/04 12:44:49;;;;;;;0.30;0.30;;;;;;;;;;5045744;28;20673;-84
2023/05/04 12:47:16;;;;;;;0.40;0.40;;;;;;;;;;5096383;28;20191;-85
2023/05/04 12:49:42;;;;;;;0.40;0.40;;;;;;;;;;5099949;28;20186;-83
2023/05/04 12:52:08;;;;;;;0.30;0.30;;;;;;;;;;5062384;28;20186;-83
2023/05/04 12:54:34;;;;;;;0.40;0.40;;;;;;;;;;5055552;28;20649;-84
2023/05/04 12:57:01;;;;;;;0.30;0.30;;;;;;;;;;5037656;28;20226;-84
2023/05/04 12:59:27;;;;;;;0.43;0.43;;;;;;;;;;5046796;28;20164;-88
2023/05/04 13:01:53;;;;;;;0.40;0.40;;;;;;;;;;5037301;28;20579;-85
2023/05/04 13:04:19;;;;;;;0.40;0.40;;;;;;;;;;5052960;28;20198;-85
2023/05/04 13:06:45;;;;;;;0.40;0.40;;;;;;;;;;5053447;28;20179;-84
2023/05/04 13:09:12;;;;;;;0.40;0.40;;;;;;;;;;5059423;28;20227;-82
2023/05/04 13:11:38;;;;;;;0.40;0.40;;;;;;;;;;5037947;28;20194;-83
2023/05/04 13:14:04;;;;;;;0.40;0.40;;;;;;;;;;5048963;28;20230;-88
2023/05/04 13:16:30;;;;;;;0.50;0.50;;;;;;;;;;5054344;28;20661;-89
2023/05/04 13:18:56;;;;;;;0.40;0.40;;;;;;;;;;5055240;28;20195;-88
2023/05/04 13:21:22;;;;;;;0.50;0.50;;;;;;;;;;5054822;28;20187;-85
2023/05/04 13:23:48;;;;;;;0.30;0.30;;;;;;;;;;5043533;28;20246;-85
2023/05/04 13:26:15;;;;;;;0.40;0.40;;;;;;;;;;5050847;28;20164;-89
2023/05/04 13:28:41;;;;;;;0.40;0.40;;;;;;;;;;5059299;28;20240;-85
2023/05/04 13:31:08;;;;;;;0.40;0.40;;;;;;;;;;5058906;28;20160;-84
2023/05/04 13:33:37;;;;;;;0.37;0.37;;;;;;;;;;5058109;28;20203;-85
2023/05/04 13:36:03;;;;;;;0.37;0.37;;;;;;;;;;5057630;28;20172;-84
2023/05/04 13:38:29;;;;;;;0.30;0.30;;;;;;;;;;5058356;28;20202;-87
2023/05/04 13:40:55;;;;;;;0.30;0.30;;;;;;;;;;5058054;28;20168;-86
2023/05/04 13:43:21;;;;;;;0.40;0.40;;;;;;;;;;5080772;28;20190;-84
2023/05/04 13:45:47;;;;;;;0.40;0.40;;;;;;;;;;5063785;28;20167;-86
2023/05/04 13:48:13;;;;;;;0.37;0.37;;;;;;;;;;5048555;28;20773;-86
2023/05/04 13:50:39;;;;;;;0.30;0.30;;;;;;;;;;5039517;28;20313;-86
2023/05/04 13:53:05;;;;;;;0.43;0.43;;;;;;;;;;5038250;28;20294;-85
2023/05/04 13:55:32;;;;;;;0.50;0.50;;;;;;;;;;5044715;28;20188;-88
2023/05/04 13:57:58;;;;;;;0.30;0.30;;;;;;;;;;5034784;28;20183;-87
2023/05/04 14:00:24;;;;;;;0.30;0.30;;;;;;;;;;5033358;28;20187;-86
2023/05/04 14:02:50;;;;;;;0.40;0.40;;;;;;;;;;5035414;28;20549;-89
2023/05/04 14:05:16;;;;;;;0.30;0.30;;;;;;;;;;5053905;28;20199;-89
2023/05/04 14:07:42;;;;;;;0.30;0.30;;;;;;;;;;5053745;28;20202;-88
2023/05/04 14:10:08;;;;;;;0.33;0.33;;;;;;;;;;5054798;28;20185;-88
2023/05/04 14:12:34;;;;;;;0.40;0.40;;;;;;;;;;5058221;28;20182;-89
2023/05/04 14:15:01;;;;;;;0.40;0.40;;;;;;;;;;5073195;28;20222;-89
2023/05/04 14:17:27;;;;;;;0.50;0.50;;;;;;;;;;5059810;28;20180;-90
2023/05/04 14:19:53;;;;;;;0.43;0.43;;;;;;;;;;5033843;28;20176;-88
2023/05/04 14:22:19;;;;;;;0.40;0.40;;;;;;;;;;5049342;28;20178;-88
2023/05/04 14:24:45;;;;;;;0.40;0.40;;;;;;;;;;5052941;28;20195;-88
2023/05/04 14:27:11;;;;;;;0.30;0.30;;;;;;;;;;5053085;28;20179;-89
2023/05/04 14:29:37;;;;;;;0.30;0.30;;;;;;;;;;5053906;28;20705;-86
2023/05/04 14:32:03;;;;;;;0.30;0.30;;;;;;;;;;5053692;28;20171;-86
2023/05/04 14:34:29;;;;;;;0.37;0.37;;;;;;;;;;5052847;28;20276;-87
2023/05/04 14:36:55;;;;;;;0.37;0.37;;;;;;;;;;5041678;28;20290;-86
2023/05/04 14:39:21;;;;;;;0.33;0.33;;;;;;;;;;5044811;28;20604;-86
2023/05/04 14:41:47;;;;;;;0.50;0.50;;;;;;;;;;5036080;28;20199;-84